sensor_id;sensor_type;location;lat;lon;timestamp;P1;durP1;ratioP1;P2;durP2;ratioP2
8861;SDS011;4799;50.996;4.754;2022-08-20T00:01:01;8.77;;;7.87;;
8861;SDS011;4799;50.996;4.754;2022-08-20T00:03:32;9.17;;;8.30;;
8861;SDS011;4799;50.996;4.754;2022-08-20T00:06:09;9.00;;;8.10;;
8861;SDS011;4799;50.996;4.754;2022-08-20T00:08:41;9.23;;;8.20;;
8861;SDS011;4799;50.996;4.754;2022-08-20T00:11:08;9.73;;;8.73;;
8861;SDS011;4799;50.996;4.754;2022-08-20T00:13:37;9.87;;;8.87;;
8861;SDS011;4799;50.996;4.754;2022-08-20T00:16:06;9.80;;;8.87;;
8861;SDS011;4799;50.996;4.754;2022-08-20T00:18:32;9.80;;;8.90;;
8861;SDS011;4799;50.996;4.754;2022-08-20T00:21:01;10.80;;;8.90;;
8861;SDS011;4799;50.996;4.754;2022-08-20T00:23:28;8.90;;;8.10;;
8861;SDS011;4799;50.996;4.754;2022-08-20T00:25:54;9.23;;;8.10;;
8861;SDS011;4799;50.996;4.754;2022-08-20T00:28:20;10.07;;;8.70;;
8861;SDS011;4799;50.996;4.754;2022-08-20T00:30:45;9.87;;;8.13;;
8861;SDS011;4799;50.996;4.754;2022-08-20T00:33:16;10.00;;;8.93;;
8861;SDS011;4799;50.996;4.754;2022-08-20T00:35:49;9.80;;;8.80;;
8861;SDS011;4799;50.996;4.754;2022-08-20T00:38:17;12.03;;;10.07;;
8861;SDS011;4799;50.996;4.754;2022-08-20T00:40:45;11.00;;;9.90;;
8861;SDS011;4799;50.996;4.754;2022-08-20T00:43:31;12.10;;;10.77;;
8861;SDS011;4799;50.996;4.754;2022-08-20T00:46:16;12.00;;;10.80;;
8861;SDS011;4799;50.996;4.754;2022-08-20T00:48:53;12.93;;;10.53;;
8861;SDS011;4799;50.996;4.754;2022-08-20T00:54:01;13.20;;;11.93;;
8861;SDS011;4799;50.996;4.754;2022-08-20T00:56:34;12.90;;;11.53;;
8861;SDS011;4799;50.996;4.754;2022-08-20T00:59:02;13.67;;;12.33;;
8861;SDS011;4799;50.996;4.754;2022-08-20T01:01:35;14.07;;;12.67;;
8861;SDS011;4799;50.996;4.754;2022-08-20T01:04:03;12.27;;;11.07;;
8861;SDS011;4799;50.996;4.754;2022-08-20T01:06:30;12.87;;;11.57;;
8861;SDS011;4799;50.996;4.754;2022-08-20T01:08:56;13.03;;;11.80;;
8861;SDS011;4799;50.996;4.754;2022-08-20T01:11:27;13.47;;;12.07;;
8861;SDS011;4799;50.996;4.754;2022-08-20T01:14:00;13.73;;;12.20;;
8861;SDS011;4799;50.996;4.754;2022-08-20T01:16:44;12.37;;;11.17;;
8861;SDS011;4799;50.996;4.754;2022-08-20T01:19:11;12.90;;;11.53;;
8861;SDS011;4799;50.996;4.754;2022-08-20T01:21:38;14.00;;;12.60;;
8861;SDS011;4799;50.996;4.754;2022-08-20T01:24:21;11.30;;;10.30;;
8861;SDS011;4799;50.996;4.754;2022-08-20T01:26:54;13.73;;;12.10;;
8861;SDS011;4799;50.996;4.754;2022-08-20T01:29:22;13.43;;;12.17;;
8861;SDS011;4799;50.996;4.754;2022-08-20T01:31:53;12.97;;;11.73;;
8861;SDS011;4799;50.996;4.754;2022-08-20T01:34:25;13.57;;;12.27;;
8861;SDS011;4799;50.996;4.754;2022-08-20T01:36:52;12.40;;;11.13;;
8861;SDS011;4799;50.996;4.754;2022-08-20T01:39:20;12.17;;;10.97;;
8861;SDS011;4799;50.996;4.754;2022-08-20T01:42:25;13.73;;;12.23;;
8861;SDS011;4799;50.996;4.754;2022-08-20T01:44:53;14.23;;;11.10;;
8861;SDS011;4799;50.996;4.754;2022-08-20T01:47:21;11.13;;;9.97;;
8861;SDS011;4799;50.996;4.754;2022-08-20T01:49:54;11.83;;;9.03;;
8861;SDS011;4799;50.996;4.754;2022-08-20T01:54:52;13.47;;;9.67;;
8861;SDS011;4799;50.996;4.754;2022-08-20T01:57:19;10.27;;;9.00;;
8861;SDS011;4799;50.996;4.754;2022-08-20T01:59:49;11.17;;;8.90;;
8861;SDS011;4799;50.996;4.754;2022-08-20T02:02:15;10.13;;;8.30;;
8861;SDS011;4799;50.996;4.754;2022-08-20T02:04:41;10.63;;;8.63;;
8861;SDS011;4799;50.996;4.754;2022-08-20T02:07:07;9.90;;;8.30;;
8861;SDS011;4799;50.996;4.754;2022-08-20T02:09:38;14.23;;;10.43;;
8861;SDS011;4799;50.996;4.754;2022-08-20T02:12:05;14.50;;;9.73;;
8861;SDS011;4799;50.996;4.754;2022-08-20T02:14:32;13.77;;;9.27;;
8861;SDS011;4799;50.996;4.754;2022-08-20T02:16:59;13.97;;;9.43;;
8861;SDS011;4799;50.996;4.754;2022-08-20T02:19:31;15.07;;;9.50;;
8861;SDS011;4799;50.996;4.754;2022-08-20T02:22:04;14.47;;;9.63;;
8861;SDS011;4799;50.996;4.754;2022-08-20T02:24:38;10.67;;;8.97;;
8861;SDS011;4799;50.996;4.754;2022-08-20T02:27:03;15.23;;;8.80;;
8861;SDS011;4799;50.996;4.754;2022-08-20T02:29:29;11.40;;;8.00;;
8861;SDS011;4799;50.996;4.754;2022-08-20T02:31:55;13.67;;;8.50;;
8861;SDS011;4799;50.996;4.754;2022-08-20T02:34:20;13.57;;;8.67;;
8861;SDS011;4799;50.996;4.754;2022-08-20T02:36:47;10.87;;;8.27;;
8861;SDS011;4799;50.996;4.754;2022-08-20T02:39:13;13.57;;;8.80;;
8861;SDS011;4799;50.996;4.754;2022-08-20T02:41:39;11.97;;;8.13;;
8861;SDS011;4799;50.996;4.754;2022-08-20T02:44:06;12.87;;;8.37;;
8861;SDS011;4799;50.996;4.754;2022-08-20T02:46:32;12.47;;;9.13;;
8861;SDS011;4799;50.996;4.754;2022-08-20T02:48:59;11.53;;;8.27;;
8861;SDS011;4799;50.996;4.754;2022-08-20T02:51:25;14.80;;;9.17;;
8861;SDS011;4799;50.996;4.754;2022-08-20T02:53:51;15.60;;;10.73;;
8861;SDS011;4799;50.996;4.754;2022-08-20T02:56:17;11.97;;;9.40;;
8861;SDS011;4799;50.996;4.754;2022-08-20T02:58:43;15.50;;;9.63;;
8861;SDS011;4799;50.996;4.754;2022-08-20T03:01:10;11.60;;;8.87;;
8861;SDS011;4799;50.996;4.754;2022-08-20T03:03:39;16.97;;;10.90;;
8861;SDS011;4799;50.996;4.754;2022-08-20T03:06:06;10.20;;;8.57;;
8861;SDS011;4799;50.996;4.754;2022-08-20T03:08:34;12.40;;;9.33;;
8861;SDS011;4799;50.996;4.754;2022-08-20T03:11:00;12.03;;;9.17;;
8861;SDS011;4799;50.996;4.754;2022-08-20T03:13:26;16.17;;;9.63;;
8861;SDS011;4799;50.996;4.754;2022-08-20T03:15:53;13.13;;;9.30;;
8861;SDS011;4799;50.996;4.754;2022-08-20T03:18:21;12.23;;;9.07;;
8861;SDS011;4799;50.996;4.754;2022-08-20T03:20:50;13.77;;;8.23;;
8861;SDS011;4799;50.996;4.754;2022-08-20T03:23:16;16.20;;;9.70;;
8861;SDS011;4799;50.996;4.754;2022-08-20T03:25:43;11.27;;;8.73;;
8861;SDS011;4799;50.996;4.754;2022-08-20T03:28:10;14.37;;;9.20;;
8861;SDS011;4799;50.996;4.754;2022-08-20T03:30:36;16.57;;;8.50;;
8861;SDS011;4799;50.996;4.754;2022-08-20T03:33:02;14.20;;;8.23;;
8861;SDS011;4799;50.996;4.754;2022-08-20T03:35:28;13.23;;;8.40;;
8861;SDS011;4799;50.996;4.754;2022-08-20T03:37:56;12.73;;;7.53;;
8861;SDS011;4799;50.996;4.754;2022-08-20T03:40:23;13.27;;;7.37;;
8861;SDS011;4799;50.996;4.754;2022-08-20T03:42:52;14.33;;;7.77;;
8861;SDS011;4799;50.996;4.754;2022-08-20T03:45:18;11.77;;;6.90;;
8861;SDS011;4799;50.996;4.754;2022-08-20T03:47:46;14.47;;;7.93;;
8861;SDS011;4799;50.996;4.754;2022-08-20T03:50:13;10.13;;;6.30;;
8861;SDS011;4799;50.996;4.754;2022-08-20T03:52:39;13.00;;;7.50;;
8861;SDS011;4799;50.996;4.754;2022-08-20T03:55:05;12.47;;;6.80;;
8861;SDS011;4799;50.996;4.754;2022-08-20T03:57:33;12.37;;;6.33;;
8861;SDS011;4799;50.996;4.754;2022-08-20T03:59:59;12.40;;;6.33;;
8861;SDS011;4799;50.996;4.754;2022-08-20T04:02:26;12.63;;;7.07;;
8861;SDS011;4799;50.996;4.754;2022-08-20T04:04:52;11.83;;;6.53;;
8861;SDS011;4799;50.996;4.754;2022-08-20T04:07:21;10.30;;;6.60;;
8861;SDS011;4799;50.996;4.754;2022-08-20T04:09:53;10.50;;;6.00;;
8861;SDS011;4799;50.996;4.754;2022-08-20T04:12:19;12.47;;;6.83;;
8861;SDS011;4799;50.996;4.754;2022-08-20T04:14:46;10.13;;;6.93;;
8861;SDS011;4799;50.996;4.754;2022-08-20T04:17:13;11.80;;;6.70;;
8861;SDS011;4799;50.996;4.754;2022-08-20T04:19:40;15.53;;;7.27;;
8861;SDS011;4799;50.996;4.754;2022-08-20T04:22:06;11.57;;;6.57;;
8861;SDS011;4799;50.996;4.754;2022-08-20T04:24:33;11.23;;;6.50;;
8861;SDS011;4799;50.996;4.754;2022-08-20T04:27:02;15.20;;;6.03;;
8861;SDS011;4799;50.996;4.754;2022-08-20T04:29:29;13.80;;;7.23;;
8861;SDS011;4799;50.996;4.754;2022-08-20T04:31:57;13.87;;;6.93;;
8861;SDS011;4799;50.996;4.754;2022-08-20T04:34:24;11.17;;;6.30;;
8861;SDS011;4799;50.996;4.754;2022-08-20T04:36:50;13.00;;;6.53;;
8861;SDS011;4799;50.996;4.754;2022-08-20T04:39:16;12.67;;;6.70;;
8861;SDS011;4799;50.996;4.754;2022-08-20T04:41:42;14.57;;;6.77;;
8861;SDS011;4799;50.996;4.754;2022-08-20T04:44:09;11.03;;;6.53;;
8861;SDS011;4799;50.996;4.754;2022-08-20T04:46:36;14.63;;;6.93;;
8861;SDS011;4799;50.996;4.754;2022-08-20T04:49:03;12.53;;;7.00;;
8861;SDS011;4799;50.996;4.754;2022-08-20T04:51:29;13.33;;;6.60;;
8861;SDS011;4799;50.996;4.754;2022-08-20T04:53:56;14.30;;;7.00;;
8861;SDS011;4799;50.996;4.754;2022-08-20T04:56:23;16.90;;;7.50;;
8861;SDS011;4799;50.996;4.754;2022-08-20T04:58:51;16.20;;;7.27;;
8861;SDS011;4799;50.996;4.754;2022-08-20T05:01:19;15.40;;;7.67;;
8861;SDS011;4799;50.996;4.754;2022-08-20T05:03:47;11.17;;;6.13;;
8861;SDS011;4799;50.996;4.754;2022-08-20T05:06:14;14.23;;;6.23;;
8861;SDS011;4799;50.996;4.754;2022-08-20T05:08:42;10.80;;;6.37;;
8861;SDS011;4799;50.996;4.754;2022-08-20T05:11:08;13.10;;;6.40;;
8861;SDS011;4799;50.996;4.754;2022-08-20T05:13:35;14.87;;;6.73;;
8861;SDS011;4799;50.996;4.754;2022-08-20T05:16:00;14.60;;;6.70;;
8861;SDS011;4799;50.996;4.754;2022-08-20T05:18:26;11.17;;;5.77;;
8861;SDS011;4799;50.996;4.754;2022-08-20T05:20:57;15.20;;;7.23;;
8861;SDS011;4799;50.996;4.754;2022-08-20T05:23:28;11.70;;;6.60;;
8861;SDS011;4799;50.996;4.754;2022-08-20T05:25:55;10.10;;;6.00;;
8861;SDS011;4799;50.996;4.754;2022-08-20T05:28:23;14.53;;;6.33;;
8861;SDS011;4799;50.996;4.754;2022-08-20T05:30:50;11.30;;;5.83;;
8861;SDS011;4799;50.996;4.754;2022-08-20T05:33:17;9.90;;;5.47;;
8861;SDS011;4799;50.996;4.754;2022-08-20T05:35:45;11.70;;;5.70;;
8861;SDS011;4799;50.996;4.754;2022-08-20T05:38:13;14.70;;;6.40;;
8861;SDS011;4799;50.996;4.754;2022-08-20T05:40:40;10.30;;;5.90;;
8861;SDS011;4799;50.996;4.754;2022-08-20T05:43:07;13.20;;;6.20;;
8861;SDS011;4799;50.996;4.754;2022-08-20T05:45:33;15.87;;;6.47;;
8861;SDS011;4799;50.996;4.754;2022-08-20T05:48:04;11.30;;;6.20;;
8861;SDS011;4799;50.996;4.754;2022-08-20T05:50:32;10.63;;;6.10;;
8861;SDS011;4799;50.996;4.754;2022-08-20T05:52:59;11.47;;;5.93;;
8861;SDS011;4799;50.996;4.754;2022-08-20T05:55:26;12.73;;;6.40;;
8861;SDS011;4799;50.996;4.754;2022-08-20T05:57:59;11.87;;;6.80;;
8861;SDS011;4799;50.996;4.754;2022-08-20T06:00:26;12.57;;;6.60;;
8861;SDS011;4799;50.996;4.754;2022-08-20T06:02:54;13.40;;;6.20;;
8861;SDS011;4799;50.996;4.754;2022-08-20T06:05:39;11.63;;;5.57;;
8861;SDS011;4799;50.996;4.754;2022-08-20T06:08:06;12.43;;;6.10;;
8861;SDS011;4799;50.996;4.754;2022-08-20T06:10:34;12.57;;;6.37;;
8861;SDS011;4799;50.996;4.754;2022-08-20T06:13:01;12.40;;;7.03;;
8861;SDS011;4799;50.996;4.754;2022-08-20T06:15:27;14.33;;;6.73;;
8861;SDS011;4799;50.996;4.754;2022-08-20T06:17:54;12.17;;;5.80;;
8861;SDS011;4799;50.996;4.754;2022-08-20T06:20:20;14.43;;;7.10;;
8861;SDS011;4799;50.996;4.754;2022-08-20T06:22:47;14.93;;;7.20;;
8861;SDS011;4799;50.996;4.754;2022-08-20T06:25:13;16.93;;;7.53;;
8861;SDS011;4799;50.996;4.754;2022-08-20T06:27:39;20.03;;;7.90;;
8861;SDS011;4799;50.996;4.754;2022-08-20T06:30:07;13.03;;;6.60;;
8861;SDS011;4799;50.996;4.754;2022-08-20T06:32:35;14.47;;;7.53;;
8861;SDS011;4799;50.996;4.754;2022-08-20T06:35:02;18.33;;;8.33;;
8861;SDS011;4799;50.996;4.754;2022-08-20T06:37:31;15.50;;;8.33;;
8861;SDS011;4799;50.996;4.754;2022-08-20T06:40:02;17.03;;;8.30;;
8861;SDS011;4799;50.996;4.754;2022-08-20T06:42:33;19.07;;;9.30;;
8861;SDS011;4799;50.996;4.754;2022-08-20T06:44:59;20.30;;;11.10;;
8861;SDS011;4799;50.996;4.754;2022-08-20T06:47:28;20.37;;;11.03;;
8861;SDS011;4799;50.996;4.754;2022-08-20T06:49:55;22.37;;;11.97;;
8861;SDS011;4799;50.996;4.754;2022-08-20T06:52:21;20.57;;;10.30;;
8861;SDS011;4799;50.996;4.754;2022-08-20T06:54:47;21.67;;;11.77;;
8861;SDS011;4799;50.996;4.754;2022-08-20T06:57:13;21.30;;;11.73;;
8861;SDS011;4799;50.996;4.754;2022-08-20T06:59:39;24.97;;;11.83;;
8861;SDS011;4799;50.996;4.754;2022-08-20T07:02:06;23.90;;;12.00;;
8861;SDS011;4799;50.996;4.754;2022-08-20T07:04:32;28.77;;;12.63;;
8861;SDS011;4799;50.996;4.754;2022-08-20T07:06:58;22.40;;;11.80;;
8861;SDS011;4799;50.996;4.754;2022-08-20T07:09:24;25.80;;;11.90;;
8861;SDS011;4799;50.996;4.754;2022-08-20T07:11:51;26.53;;;12.60;;
8861;SDS011;4799;50.996;4.754;2022-08-20T07:14:17;23.00;;;12.13;;
8861;SDS011;4799;50.996;4.754;2022-08-20T07:16:43;24.23;;;12.73;;
8861;SDS011;4799;50.996;4.754;2022-08-20T07:19:11;23.83;;;13.20;;
8861;SDS011;4799;50.996;4.754;2022-08-20T07:21:38;27.57;;;14.77;;
8861;SDS011;4799;50.996;4.754;2022-08-20T07:24:03;28.63;;;16.73;;
8861;SDS011;4799;50.996;4.754;2022-08-20T07:26:29;34.17;;;18.33;;
8861;SDS011;4799;50.996;4.754;2022-08-20T07:28:55;33.07;;;19.30;;
8861;SDS011;4799;50.996;4.754;2022-08-20T07:31:21;28.33;;;16.50;;
8861;SDS011;4799;50.996;4.754;2022-08-20T07:34:05;34.20;;;19.73;;
8861;SDS011;4799;50.996;4.754;2022-08-20T07:36:32;39.03;;;21.80;;
8861;SDS011;4799;50.996;4.754;2022-08-20T07:38:58;35.67;;;20.87;;
8861;SDS011;4799;50.996;4.754;2022-08-20T07:41:25;39.00;;;21.90;;
8861;SDS011;4799;50.996;4.754;2022-08-20T07:43:51;40.87;;;21.87;;
8861;SDS011;4799;50.996;4.754;2022-08-20T07:46:18;36.10;;;19.43;;
8861;SDS011;4799;50.996;4.754;2022-08-20T07:48:45;39.53;;;20.67;;
8861;SDS011;4799;50.996;4.754;2022-08-20T07:51:15;42.10;;;20.87;;
8861;SDS011;4799;50.996;4.754;2022-08-20T07:53:46;37.13;;;20.53;;
8861;SDS011;4799;50.996;4.754;2022-08-20T07:56:14;35.37;;;19.83;;
8861;SDS011;4799;50.996;4.754;2022-08-20T07:58:46;35.40;;;19.00;;
8861;SDS011;4799;50.996;4.754;2022-08-20T08:01:17;30.10;;;17.53;;
8861;SDS011;4799;50.996;4.754;2022-08-20T08:03:44;39.53;;;19.30;;
8861;SDS011;4799;50.996;4.754;2022-08-20T08:06:10;29.57;;;17.33;;
8861;SDS011;4799;50.996;4.754;2022-08-20T08:08:36;31.50;;;17.97;;
8861;SDS011;4799;50.996;4.754;2022-08-20T08:11:04;28.67;;;16.03;;
8861;SDS011;4799;50.996;4.754;2022-08-20T08:13:32;29.67;;;16.40;;
8861;SDS011;4799;50.996;4.754;2022-08-20T08:16:00;28.27;;;16.73;;
8861;SDS011;4799;50.996;4.754;2022-08-20T08:18:30;27.23;;;16.00;;
8861;SDS011;4799;50.996;4.754;2022-08-20T08:21:02;29.90;;;17.37;;
8861;SDS011;4799;50.996;4.754;2022-08-20T08:23:30;24.97;;;16.40;;
8861;SDS011;4799;50.996;4.754;2022-08-20T08:25:56;23.33;;;14.93;;
8861;SDS011;4799;50.996;4.754;2022-08-20T08:28:23;21.97;;;14.30;;
8861;SDS011;4799;50.996;4.754;2022-08-20T08:30:49;23.33;;;15.37;;
8861;SDS011;4799;50.996;4.754;2022-08-20T08:33:22;23.33;;;15.70;;
8861;SDS011;4799;50.996;4.754;2022-08-20T08:35:53;20.10;;;14.30;;
8861;SDS011;4799;50.996;4.754;2022-08-20T08:38:20;22.07;;;15.47;;
8861;SDS011;4799;50.996;4.754;2022-08-20T08:40:48;22.67;;;14.67;;
8861;SDS011;4799;50.996;4.754;2022-08-20T08:43:18;21.77;;;15.33;;
8861;SDS011;4799;50.996;4.754;2022-08-20T08:45:46;22.80;;;15.00;;
8861;SDS011;4799;50.996;4.754;2022-08-20T08:48:21;20.73;;;14.70;;
8861;SDS011;4799;50.996;4.754;2022-08-20T08:50:52;22.30;;;15.20;;
8861;SDS011;4799;50.996;4.754;2022-08-20T08:53:23;21.70;;;14.60;;
8861;SDS011;4799;50.996;4.754;2022-08-20T08:55:51;20.10;;;13.90;;
8861;SDS011;4799;50.996;4.754;2022-08-20T08:58:18;17.77;;;13.97;;
8861;SDS011;4799;50.996;4.754;2022-08-20T09:00:43;19.50;;;13.67;;
8861;SDS011;4799;50.996;4.754;2022-08-20T09:03:24;20.03;;;13.27;;
8861;SDS011;4799;50.996;4.754;2022-08-20T09:05:54;17.90;;;13.00;;
8861;SDS011;4799;50.996;4.754;2022-08-20T09:11:21;15.73;;;11.20;;
8861;SDS011;4799;50.996;4.754;2022-08-20T09:13:48;17.17;;;11.97;;
8861;SDS011;4799;50.996;4.754;2022-08-20T09:16:16;15.80;;;9.70;;
8861;SDS011;4799;50.996;4.754;2022-08-20T09:18:42;11.83;;;8.90;;
8861;SDS011;4799;50.996;4.754;2022-08-20T09:21:08;12.50;;;8.47;;
8861;SDS011;4799;50.996;4.754;2022-08-20T09:23:35;12.20;;;8.50;;
8861;SDS011;4799;50.996;4.754;2022-08-20T09:26:01;11.23;;;7.83;;
8861;SDS011;4799;50.996;4.754;2022-08-20T09:28:27;11.77;;;5.60;;
8861;SDS011;4799;50.996;4.754;2022-08-20T09:30:53;10.17;;;5.37;;
8861;SDS011;4799;50.996;4.754;2022-08-20T09:33:19;8.10;;;4.00;;
8861;SDS011;4799;50.996;4.754;2022-08-20T09:35:44;8.63;;;4.40;;
8861;SDS011;4799;50.996;4.754;2022-08-20T09:38:10;10.93;;;6.00;;
8861;SDS011;4799;50.996;4.754;2022-08-20T09:40:37;6.80;;;4.47;;
8861;SDS011;4799;50.996;4.754;2022-08-20T09:43:06;6.83;;;4.57;;
8861;SDS011;4799;50.996;4.754;2022-08-20T09:45:33;9.30;;;4.30;;
8861;SDS011;4799;50.996;4.754;2022-08-20T09:47:59;6.20;;;3.77;;
8861;SDS011;4799;50.996;4.754;2022-08-20T09:50:25;7.10;;;4.10;;
8861;SDS011;4799;50.996;4.754;2022-08-20T09:52:53;10.53;;;4.93;;
8861;SDS011;4799;50.996;4.754;2022-08-20T09:58:02;11.47;;;4.30;;
8861;SDS011;4799;50.996;4.754;2022-08-20T10:00:42;8.13;;;3.53;;
8861;SDS011;4799;50.996;4.754;2022-08-20T10:03:08;6.93;;;3.70;;
8861;SDS011;4799;50.996;4.754;2022-08-20T10:05:34;8.00;;;3.47;;
8861;SDS011;4799;50.996;4.754;2022-08-20T10:07:59;7.00;;;3.03;;
8861;SDS011;4799;50.996;4.754;2022-08-20T10:10:28;7.83;;;3.03;;
8861;SDS011;4799;50.996;4.754;2022-08-20T10:12:54;8.47;;;3.10;;
8861;SDS011;4799;50.996;4.754;2022-08-20T10:15:19;7.20;;;2.93;;
8861;SDS011;4799;50.996;4.754;2022-08-20T10:17:46;4.93;;;2.63;;
8861;SDS011;4799;50.996;4.754;2022-08-20T10:20:12;8.50;;;2.80;;
8861;SDS011;4799;50.996;4.754;2022-08-20T10:22:38;7.43;;;2.80;;
8861;SDS011;4799;50.996;4.754;2022-08-20T10:25:04;6.13;;;2.60;;
8861;SDS011;4799;50.996;4.754;2022-08-20T10:27:31;5.73;;;2.30;;
8861;SDS011;4799;50.996;4.754;2022-08-20T10:29:58;8.17;;;2.90;;
8861;SDS011;4799;50.996;4.754;2022-08-20T10:32:23;7.23;;;2.80;;
8861;SDS011;4799;50.996;4.754;2022-08-20T10:34:49;7.50;;;2.73;;
8861;SDS011;4799;50.996;4.754;2022-08-20T10:37:16;6.13;;;2.53;;
8861;SDS011;4799;50.996;4.754;2022-08-20T10:39:43;6.53;;;3.20;;
8861;SDS011;4799;50.996;4.754;2022-08-20T10:42:09;5.53;;;2.70;;
8861;SDS011;4799;50.996;4.754;2022-08-20T10:44:35;6.67;;;3.00;;
8861;SDS011;4799;50.996;4.754;2022-08-20T10:49:42;6.03;;;2.70;;
8861;SDS011;4799;50.996;4.754;2022-08-20T10:52:08;4.83;;;2.50;;
8861;SDS011;4799;50.996;4.754;2022-08-20T10:54:33;6.50;;;2.70;;
8861;SDS011;4799;50.996;4.754;2022-08-20T10:57:00;6.10;;;2.47;;
8861;SDS011;4799;50.996;4.754;2022-08-20T10:59:27;6.07;;;2.60;;
8861;SDS011;4799;50.996;4.754;2022-08-20T11:01:53;9.50;;;3.03;;
8861;SDS011;4799;50.996;4.754;2022-08-20T11:04:18;6.47;;;2.60;;
8861;SDS011;4799;50.996;4.754;2022-08-20T11:06:44;7.23;;;2.80;;
8861;SDS011;4799;50.996;4.754;2022-08-20T11:09:10;5.50;;;2.70;;
8861;SDS011;4799;50.996;4.754;2022-08-20T11:11:36;6.50;;;2.77;;
8861;SDS011;4799;50.996;4.754;2022-08-20T11:14:01;6.63;;;2.70;;
8861;SDS011;4799;50.996;4.754;2022-08-20T11:16:28;7.90;;;2.50;;
8861;SDS011;4799;50.996;4.754;2022-08-20T11:18:54;6.30;;;2.83;;
8861;SDS011;4799;50.996;4.754;2022-08-20T11:21:20;7.00;;;2.70;;
8861;SDS011;4799;50.996;4.754;2022-08-20T11:23:45;6.83;;;2.90;;
8861;SDS011;4799;50.996;4.754;2022-08-20T11:26:17;6.13;;;2.60;;
8861;SDS011;4799;50.996;4.754;2022-08-20T11:28:47;7.30;;;2.97;;
8861;SDS011;4799;50.996;4.754;2022-08-20T11:31:13;6.97;;;2.57;;
8861;SDS011;4799;50.996;4.754;2022-08-20T11:33:38;7.97;;;2.67;;
8861;SDS011;4799;50.996;4.754;2022-08-20T11:36:04;5.27;;;2.40;;
8861;SDS011;4799;50.996;4.754;2022-08-20T11:38:30;5.87;;;2.80;;
8861;SDS011;4799;50.996;4.754;2022-08-20T11:40:56;5.67;;;2.43;;
8861;SDS011;4799;50.996;4.754;2022-08-20T11:43:22;6.43;;;2.80;;
8861;SDS011;4799;50.996;4.754;2022-08-20T11:45:49;6.93;;;3.00;;
8861;SDS011;4799;50.996;4.754;2022-08-20T11:48:18;5.93;;;2.70;;
8861;SDS011;4799;50.996;4.754;2022-08-20T11:50:44;4.57;;;2.40;;
8861;SDS011;4799;50.996;4.754;2022-08-20T11:53:11;6.47;;;2.60;;
8861;SDS011;4799;50.996;4.754;2022-08-20T11:55:37;6.97;;;3.10;;
8861;SDS011;4799;50.996;4.754;2022-08-20T11:58:03;4.53;;;2.80;;
8861;SDS011;4799;50.996;4.754;2022-08-20T12:00:29;7.30;;;2.83;;
8861;SDS011;4799;50.996;4.754;2022-08-20T12:02:56;4.27;;;2.70;;
8861;SDS011;4799;50.996;4.754;2022-08-20T12:05:21;6.70;;;2.83;;
8861;SDS011;4799;50.996;4.754;2022-08-20T12:07:47;6.00;;;3.07;;
8861;SDS011;4799;50.996;4.754;2022-08-20T12:10:13;6.70;;;2.93;;
8861;SDS011;4799;50.996;4.754;2022-08-20T12:12:39;5.47;;;2.80;;
8861;SDS011;4799;50.996;4.754;2022-08-20T12:15:06;6.83;;;2.93;;
8861;SDS011;4799;50.996;4.754;2022-08-20T12:17:33;5.13;;;2.57;;
8861;SDS011;4799;50.996;4.754;2022-08-20T12:20:00;6.50;;;2.93;;
8861;SDS011;4799;50.996;4.754;2022-08-20T12:22:29;5.13;;;2.60;;
8861;SDS011;4799;50.996;4.754;2022-08-20T12:24:55;5.07;;;2.60;;
8861;SDS011;4799;50.996;4.754;2022-08-20T12:27:22;4.93;;;2.50;;
8861;SDS011;4799;50.996;4.754;2022-08-20T12:29:53;5.73;;;2.47;;
8861;SDS011;4799;50.996;4.754;2022-08-20T12:32:22;6.97;;;2.63;;
8861;SDS011;4799;50.996;4.754;2022-08-20T12:34:49;5.83;;;2.50;;
8861;SDS011;4799;50.996;4.754;2022-08-20T12:37:17;6.70;;;2.90;;
8861;SDS011;4799;50.996;4.754;2022-08-20T12:39:47;7.70;;;2.63;;
8861;SDS011;4799;50.996;4.754;2022-08-20T12:42:14;4.30;;;2.27;;
8861;SDS011;4799;50.996;4.754;2022-08-20T12:44:41;5.93;;;2.60;;
8861;SDS011;4799;50.996;4.754;2022-08-20T12:47:18;5.57;;;2.53;;
8861;SDS011;4799;50.996;4.754;2022-08-20T12:49:48;7.73;;;2.80;;
8861;SDS011;4799;50.996;4.754;2022-08-20T12:52:20;5.67;;;2.50;;
8861;SDS011;4799;50.996;4.754;2022-08-20T12:54:47;4.63;;;2.20;;
8861;SDS011;4799;50.996;4.754;2022-08-20T12:57:21;7.37;;;2.67;;
8861;SDS011;4799;50.996;4.754;2022-08-20T12:59:56;6.23;;;2.67;;
8861;SDS011;4799;50.996;4.754;2022-08-20T13:02:24;4.57;;;2.50;;
8861;SDS011;4799;50.996;4.754;2022-08-20T13:04:50;4.30;;;2.13;;
8861;SDS011;4799;50.996;4.754;2022-08-20T13:07:16;5.43;;;2.40;;
8861;SDS011;4799;50.996;4.754;2022-08-20T13:09:42;4.83;;;2.40;;
8861;SDS011;4799;50.996;4.754;2022-08-20T13:12:08;6.73;;;2.87;;
8861;SDS011;4799;50.996;4.754;2022-08-20T13:14:34;5.10;;;2.23;;
8861;SDS011;4799;50.996;4.754;2022-08-20T13:17:01;5.97;;;2.50;;
8861;SDS011;4799;50.996;4.754;2022-08-20T13:19:28;5.57;;;2.30;;
8861;SDS011;4799;50.996;4.754;2022-08-20T13:21:55;7.17;;;2.80;;
8861;SDS011;4799;50.996;4.754;2022-08-20T13:24:21;5.57;;;2.43;;
8861;SDS011;4799;50.996;4.754;2022-08-20T13:26:47;7.07;;;2.53;;
8861;SDS011;4799;50.996;4.754;2022-08-20T13:29:14;5.43;;;2.30;;
8861;SDS011;4799;50.996;4.754;2022-08-20T13:31:40;3.77;;;1.93;;
8861;SDS011;4799;50.996;4.754;2022-08-20T13:34:06;4.80;;;2.43;;
8861;SDS011;4799;50.996;4.754;2022-08-20T13:36:32;6.00;;;2.13;;
8861;SDS011;4799;50.996;4.754;2022-08-20T13:38:59;5.87;;;2.40;;
8861;SDS011;4799;50.996;4.754;2022-08-20T13:41:25;5.93;;;2.10;;
8861;SDS011;4799;50.996;4.754;2022-08-20T13:43:51;4.90;;;2.23;;
8861;SDS011;4799;50.996;4.754;2022-08-20T13:46:17;5.67;;;2.17;;
8861;SDS011;4799;50.996;4.754;2022-08-20T13:48:43;4.23;;;2.00;;
8861;SDS011;4799;50.996;4.754;2022-08-20T13:51:09;5.90;;;2.20;;
8861;SDS011;4799;50.996;4.754;2022-08-20T13:53:35;7.37;;;2.20;;
8861;SDS011;4799;50.996;4.754;2022-08-20T13:56:00;5.20;;;1.90;;
8861;SDS011;4799;50.996;4.754;2022-08-20T13:58:26;3.87;;;2.00;;
8861;SDS011;4799;50.996;4.754;2022-08-20T14:00:52;5.63;;;2.10;;
8861;SDS011;4799;50.996;4.754;2022-08-20T14:03:18;3.63;;;1.80;;
8861;SDS011;4799;50.996;4.754;2022-08-20T14:05:43;5.13;;;2.00;;
8861;SDS011;4799;50.996;4.754;2022-08-20T14:08:14;5.03;;;2.07;;
8861;SDS011;4799;50.996;4.754;2022-08-20T14:10:42;3.60;;;1.93;;
8861;SDS011;4799;50.996;4.754;2022-08-20T14:13:09;4.47;;;2.10;;
8861;SDS011;4799;50.996;4.754;2022-08-20T14:15:36;3.80;;;2.10;;
8861;SDS011;4799;50.996;4.754;2022-08-20T14:18:02;2.63;;;1.70;;
8861;SDS011;4799;50.996;4.754;2022-08-20T14:20:30;4.47;;;2.17;;
8861;SDS011;4799;50.996;4.754;2022-08-20T14:22:57;3.90;;;1.80;;
8861;SDS011;4799;50.996;4.754;2022-08-20T14:25:24;4.30;;;1.90;;
8861;SDS011;4799;50.996;4.754;2022-08-20T14:27:50;3.47;;;2.07;;
8861;SDS011;4799;50.996;4.754;2022-08-20T14:30:20;4.43;;;2.13;;
8861;SDS011;4799;50.996;4.754;2022-08-20T14:32:47;5.23;;;2.00;;
8861;SDS011;4799;50.996;4.754;2022-08-20T14:35:13;3.73;;;2.00;;
8861;SDS011;4799;50.996;4.754;2022-08-20T14:37:41;4.27;;;2.00;;
8861;SDS011;4799;50.996;4.754;2022-08-20T14:40:11;4.47;;;2.20;;
8861;SDS011;4799;50.996;4.754;2022-08-20T14:42:38;4.43;;;2.47;;
8861;SDS011;4799;50.996;4.754;2022-08-20T14:45:06;5.20;;;2.27;;
8861;SDS011;4799;50.996;4.754;2022-08-20T14:47:36;3.83;;;2.10;;
8861;SDS011;4799;50.996;4.754;2022-08-20T14:50:06;4.90;;;2.20;;
8861;SDS011;4799;50.996;4.754;2022-08-20T14:52:40;4.63;;;2.23;;
8861;SDS011;4799;50.996;4.754;2022-08-20T14:55:08;4.67;;;2.20;;
8861;SDS011;4799;50.996;4.754;2022-08-20T14:57:37;3.50;;;2.20;;
8861;SDS011;4799;50.996;4.754;2022-08-20T15:00:03;4.20;;;2.40;;
8861;SDS011;4799;50.996;4.754;2022-08-20T15:02:33;4.70;;;2.07;;
8861;SDS011;4799;50.996;4.754;2022-08-20T15:04:59;4.60;;;2.50;;
8861;SDS011;4799;50.996;4.754;2022-08-20T15:07:26;4.27;;;2.10;;
8861;SDS011;4799;50.996;4.754;2022-08-20T15:09:57;4.83;;;2.40;;
8861;SDS011;4799;50.996;4.754;2022-08-20T15:12:24;5.00;;;2.27;;
8861;SDS011;4799;50.996;4.754;2022-08-20T15:14:51;5.40;;;2.30;;
8861;SDS011;4799;50.996;4.754;2022-08-20T15:17:18;3.93;;;2.27;;
8861;SDS011;4799;50.996;4.754;2022-08-20T15:19:45;4.33;;;2.23;;